createdAt,value
2022-08-27T00:02:03.752Z,67.9
2022-08-27T00:22:03.667Z,67.8
2022-08-27T00:42:03.698Z,69.3
2022-08-27T01:02:03.677Z,69.8
2022-08-27T01:22:03.581Z,70.2
2022-08-27T02:02:03.604Z,71.1
2022-08-27T02:22:03.571Z,71.0
2022-08-27T02:42:03.488Z,72.0
2022-08-27T03:02:03.448Z,72.7
2022-08-27T03:22:03.487Z,73.2
2022-08-27T03:42:03.379Z,73.1
2022-08-27T04:02:03.446Z,74.0
2022-08-27T04:22:03.413Z,74.1
2022-08-27T04:42:03.407Z,74.0
2022-08-27T05:02:03.295Z,74.1
2022-08-27T05:22:03.294Z,73.9
2022-08-27T05:42:03.234Z,73.6
2022-08-27T06:02:03.218Z,73.3
2022-08-27T06:22:03.191Z,73.9
2022-08-27T06:42:03.192Z,73.9
2022-08-27T07:02:03.165Z,74.2
2022-08-27T07:22:03.102Z,73.7
2022-08-27T07:42:03.085Z,72.9
2022-08-27T08:02:03.146Z,72.8
2022-08-27T08:22:03.109Z,72.4
2022-08-27T08:42:03.061Z,72.4
2022-08-27T09:02:02.970Z,72.2
2022-08-27T09:22:02.947Z,71.3
2022-08-27T09:42:02.918Z,69.8
2022-08-27T10:02:02.967Z,69.7
2022-08-27T10:22:02.953Z,68.4
2022-08-27T10:42:02.854Z,67.6
2022-08-27T11:02:02.825Z,69.5
2022-08-27T11:22:02.862Z,65.3
2022-08-27T11:42:02.843Z,64.9
2022-08-27T12:02:02.775Z,62.9
2022-08-27T12:22:02.783Z,63.9
2022-08-27T12:42:02.688Z,65.1
2022-08-27T13:02:02.706Z,62.2
2022-08-27T13:42:02.602Z,60.2
2022-08-27T14:02:02.595Z,62.4
2022-08-27T14:22:02.569Z,61.1
2022-08-27T14:42:02.639Z,61.6
2022-08-27T15:22:02.482Z,58.8
2022-08-27T15:42:02.525Z,58.2
2022-08-27T16:02:02.485Z,57.6
2022-08-27T16:22:02.463Z,58.8
2022-08-27T17:02:02.416Z,58.9
2022-08-27T17:22:02.319Z,60.9
2022-08-27T18:22:02.249Z,62.0
2022-08-27T18:42:02.210Z,62.9
2022-08-27T19:02:02.189Z,63.3
2022-08-27T19:22:02.169Z,64.4
2022-08-27T19:42:02.134Z,65.6
2022-08-27T20:02:02.095Z,67.4
2022-08-27T20:22:02.096Z,67.6
2022-08-27T21:22:01.997Z,69.5
2022-08-27T22:02:01.954Z,67.0
2022-08-27T22:22:01.916Z,67.2
2022-08-27T23:42:01.898Z,68.3
